Meath Environmental Platform

Observations for Trim Market St

Time AQI Temp °C Hum % Pres Pa CO μg/m³ H₂S μg/m³ NO μg/m³ NO₂ μg/m³ O₃ μg/m³ SO₂ μg/m³ PM1 μg/m³ PM2.5 μg/m³ PM10 μg/m³
Friday 14 August 2026
09:03 2 22.7 62 57,465 0.07 0 2.65 11.43 36.85 0 0.71 2.95 5.5
08:58 2 22.5 62 57,330 0 0 1.26 8.05 48.9 0 2.85 4.4 7.53
08:55 2 22.3 63 57,302 0 0 1.15 5.47 49.51 0 1.43 3.39 4.85
08:54 2 22.3 63 57,280 0.15 0 1.14 6.15 49.48 0 0.71 2.4 4.85
08:53 2 22.2 63 57,266 0.15 0 1.27 6.63 52.47 0 1.43 3.88 5.52
08:52 2 22.2 63 57,253 0.23 0 1.23 4.55 52.47 0 0.71 2.39 3.52
08:51 2 22.1 63 57,230 0 0 2.75 5.57 46.56 0 0.71 3.37 6.19
08:50 2 22.1 63 57,213 0 0 2.79 5.3 52.47 0 0.71 1.88 2.86
08:49 2 22 63 57,198 0 0 2.79 8.49 41.64 0 1.43 2.87 4.2
08:46 2 21.9 64 57,141 0 0 1.12 4.21 50.72 0 0 2.36 3.54
08:45 2 21.9 64 57,124 0 0 1.11 6.98 44.18 0 0 1.87 2.88
08:42 2 21.8 64 57,105 0 0 1.16 7.41 50.65 0 0.71 1.85 2.89
08:40 2 21.7 64 57,089 0 0 1.14 2.3 39.85 0 0 1.84 3.57
08:36 2 21.7 65 56,897 0 0 1.12 2.73 51.83 0 0 1.3 4.91
08:34 2 21.5 66 56,802 0 0 1.23 2.18 45.69 0 0 1.28 2.32
08:28 2 21.2 67 56,358 0 0 1.19 3.18 45.88 0 0 1.23 2.38
08:25 2 21.1 68 56,161 0 0 1.28 4.57 47.34 0 0 1.21 2.41
08:24 2 21.1 68 56,060 0 0 1.53 1.69 48.59 0 0 1.2 2.41
08:23 2 21 68 55,970 0 0 1.59 1.43 50.44 0 0 1.19 2.42
08:22 2 21 68 55,857 0.11 0 1.76 2.65 41.17 0 0 1.18 2.43